Thorndike, ME (04986)

7:59 AM EST on December 21, 2014 (GMT -0500)
Hopkins Road | Change Station
CLOSE
Current Station
Personal Weather Station
Location: Plymouth, ME
Elevation: 341 ft
Nearby Weather Stations

Elev 341 ft 44.74 °N, 69.17 °W | Updated 4 minutes ago

Overcast
Overcast
23.5 °F
Feels Like 24 °F
N
0.7
Wind Variable Wind from North
Gusts 0.7 mph

Today
High -- | Low -- °F
--% Chance of Precip.
Yesterday
High -- | Low -- °F
Precip. -- in
7:10 AM 3:59 PM
Waning Crescent, 0% visible
Pressure 30.32 in
Visibility 10.0 miles
Clouds Overcast 900 ft
Windchill 24 °F
Dew Point 20 °F
Humidity 84%
Rainfall 0.00 in
Snow Depth Not available.
UV 0 out of 12
Pollen .10 out of 12
Air Quality Not available.
Flu Activity Not available.
METAR KWVL 211255Z 34005KT 10SM OVC009 M06/M09 A3032 RMK AO1

More Conditions Fewer Conditions

Pressure 30.32 in
Visibility 10.0 miles
Clouds Overcast 900 ft
Windchill 24 °F
Dew Point 20 °F
Humidity 84%
Rainfall 0.00 in
Snow Depth Not available.
UV 0 out of 12
Pollen .10 out of 12
Air Quality Not available.
Flu Activity Not available.
METAR KWVL 211255Z 34005KT 10SM OVC009 M06/M09 A3032 RMK AO1

More Conditions Fewer Conditions

10-Day Weather Forecast

Almanac

Astronomy

Dec. 21, 2014 Rise Set
Actual Time
Civil Twilight
Nautical Twilight
Astronomical Twilight
Moon
Length of Visible Light
Length of Day
Tomorrow will be .
, % of the Moon is Illuminated

Today's Extremes

State Highs State Lows

Community

WunderPhotos

Upload Photos

1,779,372 photos uploaded!

WunderBlogs® & News

Nearby

Air Quality

  Air Quality AQ Index Pollutant
Not available.

Snow Depth

Station Depth Elevation

Earthquake Activity

City Distance Mag. Time & Date
Minimum magnitude displayed is 2.5.

Coastal Water Temperatures

Place Temperature

Nearby Weather Stations